Time;durP1;ratioP1;P1;durP2;ratioP2;P2;SDS_P1;SDS_P2;PMS_P1;PMS_P2;Temp;Humidity;BMP_temperature;BMP_pressure;BME280_temperature;BME280_humidity;BME280_pressure;Samples;Min_cycle;Max_cycle;Signal;HPM_P1;HPM_P2
2022/08/24 00:00:58;;;;;;;;;;;;;;;24.19;57.68;99042.97;4435359;32;34113;-86
2022/08/24 00:03:26;;;;;;;;;;;;;;;24.44;56.87;99050.72;4439837;32;33685;-84
2022/08/24 00:06:01;;;;;;;;;;;;;;;24.10;57.71;99052.19;4445005;32;33975;-84
2022/08/24 00:08:28;;;;;;;;;;;;;;;24.52;56.61;99051.22;4436038;32;34102;-86
2022/08/24 00:10:56;;;;;;;;;;;;;;;23.94;58.25;99054.66;4436061;32;34504;-85
2022/08/24 00:13:25;;;;;;;;;;;;;;;24.01;58.37;99055.22;4439011;32;33520;-84
2022/08/24 00:15:55;;;;;;;;;;;;;;;23.99;58.42;99052.66;4450239;32;34173;-83
2022/08/24 00:18:23;;;;;;;;;;;;;;;23.84;59.09;99049.81;4449900;32;34310;-85
2022/08/24 00:20:50;;;;;;;;;;;;;;;23.91;58.58;99040.69;4444136;32;35212;-85
2022/08/24 00:23:18;;;;;;;;;;;;;;;24.78;56.15;99038.53;4435976;32;33620;-83
2022/08/24 00:25:45;;;;;;;;;;;;;;;23.96;58.35;99046.63;4435642;32;34979;-84
2022/08/24 00:28:12;;;;;;;;;;;;;;;24.07;58.14;99036.44;4434663;32;34426;-84
2022/08/24 00:30:40;;;;;;;;;;;;;;;24.13;58.22;99049.41;4436483;32;35210;-84
2022/08/24 00:33:07;;;;;;;;;;;;;;;24.76;56.15;99036.78;4450241;32;33509;-84
2022/08/24 00:35:35;;;;;;;;;;;;;;;24.24;57.73;99028.59;4449850;32;34062;-84
2022/08/24 00:38:03;;;;;;;;;;;;;;;23.50;60.15;99035.34;4451303;32;35547;-85
2022/08/24 00:40:35;;;;;;;;;;;;;;;23.65;59.59;99032.03;4451066;32;33983;-86
2022/08/24 00:43:03;;;;;;;;;;;;;;;24.24;57.84;99027.72;4449274;32;34472;-83
2022/08/24 00:45:33;;;;;;;;;;;;;;;22.93;61.79;99032.37;4447707;32;35016;-84
2022/08/24 00:48:02;;;;;;;;;;;;;;;23.75;59.29;99037.81;4433296;32;33699;-85
2022/08/24 00:50:41;;;;;;;;;;;;;;;23.75;59.31;99037.81;4434009;32;34337;-85
2022/08/24 00:53:14;;;;;;;;;;;;;;;24.32;57.74;99043.25;4434404;32;33017;-86
2022/08/24 00:56:03;;;;;;;;;;;;;;;23.21;61.00;99040.03;4444878;32;34761;-86
2022/08/24 00:58:34;;;;;;;;;;;;;;;23.71;59.55;99039.72;4449100;32;34349;-83
2022/08/24 01:01:02;;;;;;;;;;;;;;;23.31;61.10;99037.88;4449544;32;33922;-85
2022/08/24 01:03:30;;;;;;;;;;;;;;;23.75;59.70;99033.41;4448767;32;33328;-86
2022/08/24 01:05:58;;;;;;;;;;;;;;;23.69;59.81;99025.72;4445615;32;35013;-84
2022/08/24 01:08:26;;;;;;;;;;;;;;;23.58;60.27;99022.62;4438961;32;34557;-85
2022/08/24 01:10:55;;;;;;;;;;;;;;;23.19;61.73;99018.09;4448921;32;34480;-84
2022/08/24 01:13:24;;;;;;;;;;;;;;;23.69;60.00;99020.44;4448821;32;34292;-84
2022/08/24 01:15:55;;;;;;;;;;;;;;;23.33;61.02;99020.16;4449455;32;34071;-86
2022/08/24 01:21:17;;;;;;;;;;;;;;;23.48;60.52;99023.94;4437511;32;35297;-86
2022/08/24 01:23:46;;;;;;;;;;;;;;;23.30;61.15;99029.09;4437437;32;33561;-83
2022/08/24 01:26:29;;;;;;;;;;;;;;;23.81;59.66;99026.97;4441798;32;34981;-86
2022/08/24 01:28:59;;;;;;;;;;;;;;;23.85;59.41;99031.22;4452794;32;34412;-84
2022/08/24 01:31:26;;;;;;;;;;;;;;;23.75;59.41;99029.88;4451300;32;34535;-86
2022/08/24 01:33:53;;;;;;;;;;;;;;;24.44;57.47;99037.47;4450891;32;33496;-83
2022/08/24 01:36:23;;;;;;;;;;;;;;;24.42;57.79;99049.91;4443662;32;34153;-86
2022/08/24 01:38:55;;;;;;;;;;;;;;;24.58;57.06;99045.59;4437268;32;35275;-84
2022/08/24 01:41:23;;;;;;;;;;;;;;;24.60;56.92;99051.72;4436042;32;34772;-85
2022/08/24 01:43:56;;;;;;;;;;;;;;;24.64;56.93;99042.69;4437421;32;33572;-84
2022/08/24 01:46:23;;;;;;;;;;;;;;;24.41;57.38;99043.75;4435839;32;33585;-85
2022/08/24 01:48:50;;;;;;;;;;;;;;;24.70;56.37;99042.41;4437035;32;34909;-87
2022/08/24 01:51:19;;;;;;;;;;;;;;;24.54;56.97;99051.13;4436679;32;35072;-86
2022/08/24 01:53:48;;;;;;;;;;;;;;;24.34;57.57;99054.66;4441524;32;34033;-84
2022/08/24 01:56:15;;;;;;;;;;;;;;;24.36;57.69;99058.09;4452337;32;34010;-85
2022/08/24 01:58:44;;;;;;;;;;;;;;;25.42;54.47;99060.19;4452649;32;34400;-85
2022/08/24 02:01:11;;;;;;;;;;;;;;;24.58;56.92;99064.16;4450042;32;33895;-85
2022/08/24 02:03:39;;;;;;;;;;;;;;;24.49;57.02;99070.75;4450333;32;33297;-86
2022/08/24 02:06:06;;;;;;;;;;;;;;;24.83;56.20;99066.53;4452904;32;34681;-86
2022/08/24 02:08:35;;;;;;;;;;;;;;;25.03;55.63;99060.28;4452879;32;34637;-85
2022/08/24 02:11:07;;;;;;;;;;;;;;;24.75;56.40;99066.91;4452467;32;34285;-85
2022/08/24 02:13:35;;;;;;;;;;;;;;;23.69;59.64;99065.44;4449494;32;34424;-84
2022/08/24 02:16:04;;;;;;;;;;;;;;;23.75;59.43;99067.81;4445881;32;33780;-86
2022/08/24 02:18:32;;;;;;;;;;;;;;;24.75;56.53;99068.69;4452571;32;34118;-86
2022/08/24 02:21:01;;;;;;;;;;;;;;;23.76;59.18;99061.59;4450953;32;33859;-85
2022/08/24 02:23:28;;;;;;;;;;;;;;;23.83;59.34;99061.31;4451816;32;33122;-85
2022/08/24 02:25:56;;;;;;;;;;;;;;;23.85;59.45;99068.28;4452173;32;35049;-85
2022/08/24 02:28:24;;;;;;;;;;;;;;;23.15;61.70;99077.34;4452067;32;35043;-83
2022/08/24 02:30:52;;;;;;;;;;;;;;;24.04;58.85;99066.53;4452381;32;34505;-85
2022/08/24 02:33:20;;;;;;;;;;;;;;;23.63;60.32;99068.28;4440850;32;33503;-86
2022/08/24 02:35:47;;;;;;;;;;;;;;;23.59;60.32;99072.00;4436868;32;34659;-84
2022/08/24 02:38:15;;;;;;;;;;;;;;;24.18;58.30;99071.25;4436990;32;35110;-85
2022/08/24 02:40:43;;;;;;;;;;;;;;;24.20;58.18;99072.03;4437036;32;34678;-84
2022/08/24 02:43:11;;;;;;;;;;;;;;;24.61;56.92;99071.13;4436679;32;34097;-84
2022/08/24 02:45:42;;;;;;;;;;;;;;;23.03;61.61;99067.22;4452253;32;34011;-84
2022/08/24 02:48:17;;;;;;;;;;;;;;;23.60;60.21;99072.84;4452623;32;34371;-85
2022/08/24 02:50:45;;;;;;;;;;;;;;;24.29;57.66;99068.12;4448830;32;35015;-86
2022/08/24 02:53:13;;;;;;;;;;;;;;;24.58;57.01;99073.91;4436831;32;34139;-84
2022/08/24 02:55:41;;;;;;;;;;;;;;;24.51;57.16;99074.22;4436834;32;33880;-86
2022/08/24 02:58:09;;;;;;;;;;;;;;;24.09;58.26;99076.06;4435654;32;34770;-87
2022/08/24 03:00:39;;;;;;;;;;;;;;;23.72;59.54;99067.94;4436825;32;34344;-86
2022/08/24 03:03:07;;;;;;;;;;;;;;;23.79;59.29;99072.06;4448069;32;34167;-85
2022/08/24 03:05:35;;;;;;;;;;;;;;;23.43;60.79;99076.22;4448648;32;33652;-85
2022/08/24 03:08:02;;;;;;;;;;;;;;;23.84;59.56;99073.66;4436800;32;34014;-84
2022/08/24 03:10:31;;;;;;;;;;;;;;;24.00;58.93;99072.91;4436956;32;34278;-87
2022/08/24 03:13:00;;;;;;;;;;;;;;;24.01;58.74;99064.03;4436696;32;33842;-86
2022/08/24 03:15:28;;;;;;;;;;;;;;;23.90;59.30;99060.12;4447986;32;35786;-85
2022/08/24 03:17:56;;;;;;;;;;;;;;;23.95;59.29;99064.31;4436609;32;33671;-84
2022/08/24 03:20:23;;;;;;;;;;;;;;;23.83;59.35;99069.25;4435355;32;34623;-86
2022/08/24 03:22:50;;;;;;;;;;;;;;;23.83;59.40;99069.25;4436580;32;33757;-86
2022/08/24 03:25:19;;;;;;;;;;;;;;;23.97;58.97;99072.19;4435312;32;34198;-84
2022/08/24 03:27:46;;;;;;;;;;;;;;;23.68;59.90;99060.22;4436263;32;34006;-85
2022/08/24 03:30:14;;;;;;;;;;;;;;;23.71;60.14;99060.06;4436475;32;35390;-86
2022/08/24 03:32:45;;;;;;;;;;;;;;;23.87;59.16;99062.94;4437569;32;34136;-85
2022/08/24 03:35:13;;;;;;;;;;;;;;;23.58;60.25;99062.34;4451109;32;35044;-86
2022/08/24 03:37:40;;;;;;;;;;;;;;;23.26;61.36;99071.59;4451914;32;34488;-83
2022/08/24 03:40:09;;;;;;;;;;;;;;;24.17;58.46;99063.34;4452197;32;34140;-82
2022/08/24 03:42:51;;;;;;;;;;;;;;;23.40;60.79;99068.38;4450534;32;33181;-83
2022/08/24 03:45:20;;;;;;;;;;;;;;;23.25;61.33;99070.72;4438575;32;33997;-83
2022/08/24 03:47:47;;;;;;;;;;;;;;;23.23;61.45;99059.38;4435005;32;34027;-85
2022/08/24 03:50:15;;;;;;;;;;;;;;;23.72;59.97;99062.66;4435381;32;35036;-84
2022/08/24 03:52:42;;;;;;;;;;;;;;;23.41;60.86;99068.34;4442498;32;33761;-84
2022/08/24 03:55:09;;;;;;;;;;;;;;;23.01;62.26;99061.16;4451297;32;34200;-84
2022/08/24 03:57:37;;;;;;;;;;;;;;;23.16;61.82;99062.31;4450727;32;34422;-85
2022/08/24 04:00:06;;;;;;;;;;;;;;;23.76;59.52;99064.25;4452051;32;34428;-84
2022/08/24 04:02:40;;;;;;;;;;;;;;;24.33;57.86;99067.06;4450446;32;33740;-85
2022/08/24 04:05:09;;;;;;;;;;;;;;;24.09;58.62;99068.12;4439226;32;35037;-85
2022/08/24 04:07:37;;;;;;;;;;;;;;;24.09;58.33;99071.63;4437206;32;35140;-85
2022/08/24 04:10:04;;;;;;;;;;;;;;;23.81;59.17;99063.19;4436091;32;34562;-86
2022/08/24 04:12:32;;;;;;;;;;;;;;;24.05;58.60;99070.06;4436114;32;33429;-84
2022/08/24 04:15:00;;;;;;;;;;;;;;;23.37;60.73;99061.44;4436471;32;34235;-84
2022/08/24 04:17:29;;;;;;;;;;;;;;;23.88;59.00;99073.44;4440027;32;34895;-82
2022/08/24 04:19:57;;;;;;;;;;;;;;;23.36;60.98;99069.44;4446871;32;34263;-82
2022/08/24 04:22:26;;;;;;;;;;;;;;;23.10;61.74;99074.00;4436526;32;33121;-85
2022/08/24 04:24:53;;;;;;;;;;;;;;;22.74;63.10;99086.84;4435813;32;34157;-83
2022/08/24 04:27:21;;;;;;;;;;;;;;;22.72;63.07;99075.44;4435899;32;35335;-85
2022/08/24 04:29:48;;;;;;;;;;;;;;;23.48;60.91;99067.12;4434984;32;34820;-83
2022/08/24 04:32:15;;;;;;;;;;;;;;;23.37;60.82;99065.84;4435931;32;33364;-84
2022/08/24 04:34:43;;;;;;;;;;;;;;;24.08;58.72;99072.56;4443872;32;34395;-84
2022/08/24 04:37:11;;;;;;;;;;;;;;;24.27;58.22;99062.03;4450123;32;34238;-84
2022/08/24 04:39:40;;;;;;;;;;;;;;;24.01;58.86;99060.53;4442504;32;35099;-84
2022/08/24 04:42:08;;;;;;;;;;;;;;;23.98;59.14;99063.28;4434777;32;33480;-84
2022/08/24 04:44:38;;;;;;;;;;;;;;;23.71;59.96;99060.06;4435897;32;34824;-86
2022/08/24 04:47:07;;;;;;;;;;;;;;;24.19;58.43;99057.06;4446108;32;35083;-83
2022/08/24 04:49:37;;;;;;;;;;;;;;;23.58;60.26;99064.97;4449738;32;35379;-83
2022/08/24 04:52:04;;;;;;;;;;;;;;;24.21;58.18;99068.47;4451104;32;33582;-83
2022/08/24 04:54:32;;;;;;;;;;;;;;;24.11;58.69;99068.94;4439312;32;34326;-85
2022/08/24 04:57:00;;;;;;;;;;;;;;;24.62;56.91;99065.72;4451186;32;35061;-84
2022/08/24 04:59:27;;;;;;;;;;;;;;;25.01;55.82;99067.47;4438354;32;34153;-84
2022/08/24 05:01:54;;;;;;;;;;;;;;;25.58;54.23;99076.19;4451586;32;33406;-84
2022/08/24 05:04:23;;;;;;;;;;;;;;;25.62;53.72;99075.09;4451667;32;34182;-85
2022/08/24 05:06:50;;;;;;;;;;;;;;;24.68;56.88;99077.88;4437395;32;34121;-82
2022/08/24 05:09:20;;;;;;;;;;;;;;;24.71;56.92;99075.94;4447819;32;34253;-84
2022/08/24 05:11:48;;;;;;;;;;;;;;;24.01;58.87;99057.88;4452013;32;33639;-85
2022/08/24 05:14:16;;;;;;;;;;;;;;;24.71;57.19;99064.47;4437513;32;34258;-85
2022/08/24 05:16:44;;;;;;;;;;;;;;;25.06;56.15;99057.50;4437394;32;34286;-85
2022/08/24 05:19:22;;;;;;;;;;;;;;;25.65;54.36;99058.16;4443461;32;33850;-84
2022/08/24 05:21:49;;;;;;;;;;;;;;;25.64;54.41;99057.28;4439656;32;33100;-83
2022/08/24 05:24:18;;;;;;;;;;;;;;;25.66;54.24;99059.88;4447683;32;34208;-83
2022/08/24 05:26:45;;;;;;;;;;;;;;;26.66;51.10;99064.37;4444263;32;34151;-84
2022/08/24 05:29:13;;;;;;;;;;;;;;;26.51;51.58;99062.53;4453080;32;35120;-82
2022/08/24 05:31:42;;;;;;;;;;;;;;;26.45;52.03;99073.50;4437894;32;34712;-83
2022/08/24 05:34:12;;;;;;;;;;;;;;;26.81;50.82;99061.81;4438449;32;34247;-83
2022/08/24 05:36:40;;;;;;;;;;;;;;;26.28;52.37;99068.22;4446037;32;34480;-84
2022/08/24 05:39:08;;;;;;;;;;;;;;;26.99;50.76;99071.44;4452574;32;35274;-83
2022/08/24 05:41:39;;;;;;;;;;;;;;;27.03;50.62;99069.47;4437339;32;34363;-84
2022/08/24 05:44:12;;;;;;;;;;;;;;;25.35;54.96;99077.34;4442277;32;35002;-84
2022/08/24 05:46:40;;;;;;;;;;;;;;;25.96;53.40;99076.06;4450756;32;34330;-85
2022/08/24 05:49:07;;;;;;;;;;;;;;;26.29;52.59;99072.56;4442436;32;34927;-84
2022/08/24 05:51:35;;;;;;;;;;;;;;;26.08;53.03;99072.78;4437272;32;33736;-86
2022/08/24 05:54:03;;;;;;;;;;;;;;;26.85;50.93;99064.22;4437204;32;34455;-86
2022/08/24 05:56:32;;;;;;;;;;;;;;;26.61;51.65;99069.09;4437482;32;34158;-85
2022/08/24 05:58:59;;;;;;;;;;;;;;;26.46;52.39;99069.06;4436041;32;34946;-86
2022/08/24 06:01:27;;;;;;;;;;;;;;;26.89;51.51;99070.22;4443603;32;34619;-86
2022/08/24 06:03:56;;;;;;;;;;;;;;;27.42;50.18;99061.03;4451520;32;34173;-86
2022/08/24 06:06:24;;;;;;;;;;;;;;;27.01;50.80;99068.66;4451349;32;35247;-85
2022/08/24 06:08:53;;;;;;;;;;;;;;;27.50;49.63;99060.56;4451143;32;34449;-86
2022/08/24 06:11:23;;;;;;;;;;;;;;;26.90;50.95;99059.50;4451430;32;34468;-86
2022/08/24 06:13:58;;;;;;;;;;;;;;;26.71;51.65;99066.81;4452572;32;34888;-86
2022/08/24 06:16:26;;;;;;;;;;;;;;;25.71;54.60;99069.31;4451435;32;33680;-85
2022/08/24 06:18:54;;;;;;;;;;;;;;;26.06;53.71;99069.31;4449616;32;34323;-84
2022/08/24 06:21:22;;;;;;;;;;;;;;;27.24;50.67;99064.75;4452759;32;33695;-84
2022/08/24 06:23:50;;;;;;;;;;;;;;;27.29;51.00;99074.19;4451277;32;33959;-85
2022/08/24 06:29:04;;;;;;;;;;;;;;;27.94;48.63;99071.31;4451347;32;34376;-85
2022/08/24 06:31:36;;;;;;;;;;;;;;;27.09;51.09;99077.09;4452654;32;33431;-86
2022/08/24 06:34:07;;;;;;;;;;;;;;;27.83;49.58;99071.09;4452431;32;34826;-86
2022/08/24 06:36:34;;;;;;;;;;;;;;;27.52;50.06;99075.53;4451665;32;34001;-84
2022/08/24 06:39:01;;;;;;;;;;;;;;;27.73;49.84;99072.53;4436853;32;34333;-84
2022/08/24 06:41:29;;;;;;;;;;;;;;;26.99;51.21;99082.06;4435472;32;33578;-85
2022/08/24 06:43:56;;;;;;;;;;;;;;;27.06;51.34;99085.25;4436874;32;34899;-85
2022/08/24 06:46:24;;;;;;;;;;;;;;;27.57;50.40;99077.91;4436709;32;33794;-84
2022/08/24 06:48:59;;;;;;;;;;;;;;;27.52;50.39;99080.00;4436887;32;34922;-84
2022/08/24 06:51:26;;;;;;;;;;;;;;;27.94;49.48;99084.63;4436583;32;33464;-84
2022/08/24 06:53:57;;;;;;;;;;;;;;;27.20;51.16;99090.69;4436637;32;34045;-85
2022/08/24 06:56:25;;;;;;;;;;;;;;;27.73;49.70;99086.75;4443405;32;33918;-85
2022/08/24 06:58:52;;;;;;;;;;;;;;;27.83;49.74;99089.72;4452283;32;34337;-85
2022/08/24 07:01:22;;;;;;;;;;;;;;;28.58;47.63;99088.72;4452513;32;34156;-86
2022/08/24 07:03:49;;;;;;;;;;;;;;;27.94;49.42;99092.63;4452359;32;35216;-85
2022/08/24 07:06:17;;;;;;;;;;;;;;;28.37;48.43;99092.72;4445286;32;34429;-86
2022/08/24 07:08:45;;;;;;;;;;;;;;;28.46;48.16;99083.31;4435622;32;34484;-85
2022/08/24 07:11:13;;;;;;;;;;;;;;;28.11;48.59;99092.47;4436902;32;34413;-85
2022/08/24 07:13:41;;;;;;;;;;;;;;;29.03;46.91;99096.63;4435508;32;34544;-85
2022/08/24 07:16:08;;;;;;;;;;;;;;;29.25;45.37;99099.63;4435178;32;35090;-84
2022/08/24 07:18:36;;;;;;;;;;;;;;;29.32;45.83;99108.06;4436651;32;34387;-83
2022/08/24 07:21:07;;;;;;;;;;;;;;;29.41;45.79;99114.63;4437506;32;33635;-85
2022/08/24 07:23:35;;;;;;;;;;;;;;;29.42;45.42;99113.66;4436723;32;34027;-85
2022/08/24 07:26:12;;;;;;;;;;;;;;;29.76;43.66;99112.31;4435750;32;33892;-83
2022/08/24 07:28:51;;;;;;;;;;;;;;;28.58;47.45;99115.41;4435275;32;34148;-86
2022/08/24 07:31:19;;;;;;;;;;;;;;;29.07;45.69;99119.47;4435457;32;33385;-83
2022/08/24 07:33:48;;;;;;;;;;;;;;;29.65;45.34;99121.03;4436489;32;33823;-86
2022/08/24 07:36:16;;;;;;;;;;;;;;;29.52;44.27;99120.97;4436601;32;34350;-86
2022/08/24 07:38:52;;;;;;;;;;;;;;;28.95;45.07;99129.09;4435401;32;34393;-86
2022/08/24 07:41:21;;;;;;;;;;;;;;;29.11;45.79;99133.50;4437001;32;33635;-85
2022/08/24 07:44:09;;;;;;;;;;;;;;;27.42;49.40;99131.09;4436298;32;35080;-86
2022/08/24 07:46:37;;;;;;;;;;;;;;;29.07;46.31;99143.50;4435283;32;35662;-86
2022/08/24 07:49:06;;;;;;;;;;;;;;;28.34;47.89;99138.22;4436004;32;34315;-86
2022/08/24 07:51:47;;;;;;;;;;;;;;;29.35;45.17;99142.59;4435143;32;33444;-85
2022/08/24 07:54:14;;;;;;;;;;;;;;;30.04;44.42;99133.56;4444552;32;34208;-84
2022/08/24 07:56:42;;;;;;;;;;;;;;;30.00;42.86;99133.84;4437349;32;34787;-83
2022/08/24 07:59:09;;;;;;;;;;;;;;;29.85;43.04;99130.41;4440777;32;34253;-85
2022/08/24 08:01:40;;;;;;;;;;;;;;;29.63;42.48;99139.00;4448039;32;33411;-84
2022/08/24 08:04:09;;;;;;;;;;;;;;;30.04;42.64;99136.25;4436119;32;34102;-84
2022/08/24 08:06:36;;;;;;;;;;;;;;;30.44;41.98;99138.00;4441366;32;35273;-84
2022/08/24 08:09:04;;;;;;;;;;;;;;;30.10;43.69;99134.94;4441504;32;34469;-85
2022/08/24 08:11:32;;;;;;;;;;;;;;;29.92;42.69;99145.06;4450420;32;33984;-85
2022/08/24 08:13:59;;;;;;;;;;;;;;;29.81;41.81;99145.81;4445647;32;34278;-85
2022/08/24 08:16:26;;;;;;;;;;;;;;;30.37;41.39;99148.28;4435939;32;35552;-85
2022/08/24 08:18:54;;;;;;;;;;;;;;;30.45;41.90;99153.94;4435905;32;34298;-86
2022/08/24 08:24:31;;;;;;;;;;;;;;;30.03;43.07;99147.00;4435635;32;34338;-86
2022/08/24 08:26:59;;;;;;;;;;;;;;;30.19;42.63;99150.41;4436185;32;35068;-85
2022/08/24 08:29:27;;;;;;;;;;;;;;;30.31;41.84;99154.06;4436961;32;34327;-85
2022/08/24 08:31:54;;;;;;;;;;;;;;;30.61;42.35;99155.53;4436486;32;33667;-85
2022/08/24 08:34:22;;;;;;;;;;;;;;;30.82;40.57;99150.56;4437668;32;33999;-86
2022/08/24 08:36:49;;;;;;;;;;;;;;;29.97;42.93;99150.97;4439727;32;34437;-85
2022/08/24 08:39:17;;;;;;;;;;;;;;;30.83;41.40;99153.09;4444854;32;34177;-84
2022/08/24 08:41:53;;;;;;;;;;;;;;;30.94;40.95;99158.56;4468777;32;34423;-85
2022/08/24 08:44:33;;;;;;;;;;;;;;;31.12;41.13;99163.56;4450532;32;37185;-87
2022/08/24 08:47:05;;;;;;;;;;;;;;;31.70;39.66;99156.63;4450761;32;35160;-87
2022/08/24 08:49:34;;;;;;;;;;;;;;;31.85;39.00;99165.34;4443060;32;34626;-86
2022/08/24 08:52:04;;;;;;;;;;;;;;;30.85;39.98;99166.41;4452015;32;32996;-86
2022/08/24 08:54:50;;;;;;;;;;;;;;;29.51;42.86;99169.13;4440497;32;34097;-86
2022/08/24 08:57:34;;;;;;;;;;;;;;;30.49;41.71;99170.63;4437559;32;34157;-87
2022/08/24 09:00:10;;;;;;;;;;;;;;;30.66;41.74;99162.31;4437671;32;34492;-90
2022/08/24 09:02:55;;;;;;;;;;;;;;;31.46;39.69;99165.53;4451499;32;34445;-86
2022/08/24 09:05:22;;;;;;;;;;;;;;;29.68;42.96;99160.94;4451403;32;34103;-87
2022/08/24 09:08:02;;;;;;;;;;;;;;;30.79;41.37;99170.34;4451430;32;34844;-85
2022/08/24 09:10:30;;;;;;;;;;;;;;;31.39;40.62;99160.72;4451813;32;34349;-83
2022/08/24 09:13:01;;;;;;;;;;;;;;;30.29;42.00;99164.00;4438872;32;33448;-88
2022/08/24 09:15:47;;;;;;;;;;;;;;;30.16;41.73;99169.34;4440890;32;34231;-85
2022/08/24 09:18:38;;;;;;;;;;;;;;;31.15;39.86;99171.38;4437777;32;35246;-86
2022/08/24 09:21:14;;;;;;;;;;;;;;;30.85;40.45;99169.94;4437762;32;34249;-86
2022/08/24 09:23:54;;;;;;;;;;;;;;;30.82;40.39;99167.47;4437354;32;32855;-87
2022/08/24 09:26:26;;;;;;;;;;;;;;;30.68;40.35;99156.84;4437383;32;34333;-87
2022/08/24 09:29:12;;;;;;;;;;;;;;;31.05;40.83;99159.62;4437491;32;33970;-87
2022/08/24 09:31:42;;;;;;;;;;;;;;;30.98;41.24;99154.69;4437151;32;34971;-89
2022/08/24 09:34:15;;;;;;;;;;;;;;;31.86;38.76;99157.25;4436834;32;33508;-86
2022/08/24 09:36:45;;;;;;;;;;;;;;;31.62;38.42;99154.53;4437410;32;34985;-88
2022/08/24 09:39:16;;;;;;;;;;;;;;;32.19;38.34;99150.28;4436056;32;35166;-87
2022/08/24 09:42:02;;;;;;;;;;;;;;;32.38;37.21;99145.19;4436258;32;35021;-88
2022/08/24 09:44:29;;;;;;;;;;;;;;;32.41;37.41;99149.50;4437219;32;34137;-86
2022/08/24 09:47:02;;;;;;;;;;;;;;;32.61;36.86;99148.78;4437380;32;34696;-87
2022/08/24 09:49:36;;;;;;;;;;;;;;;31.95;36.55;99143.12;4437161;32;35281;-86
2022/08/24 09:52:08;;;;;;;;;;;;;;;30.85;38.78;99156.53;4435781;32;34692;-87
2022/08/24 09:54:38;;;;;;;;;;;;;;;31.43;37.65;99136.28;4436006;32;34162;-88
2022/08/24 09:57:05;;;;;;;;;;;;;;;30.95;37.92;99144.22;4437492;32;35078;-87
2022/08/24 09:59:46;;;;;;;;;;;;;;;31.60;37.40;99135.03;4437115;32;35242;-87
2022/08/24 10:02:21;;;;;;;;;;;;;;;31.86;37.30;99125.09;4435981;32;35157;-87
2022/08/24 10:04:51;;;;;;;;;;;;;;;31.68;36.63;99126.44;4437017;32;34368;-87
2022/08/24 10:07:49;;;;;;;;;;;;;;;31.46;37.62;99127.16;4437417;32;34197;-87
2022/08/24 10:10:22;;;;;;;;;;;;;;;31.39;37.76;99132.13;4430302;32;34347;-85
2022/08/24 10:12:49;;;;;;;;;;;;;;;32.66;35.64;99124.28;4437235;32;34110;-87
2022/08/24 10:15:26;;;;;;;;;;;;;;;32.39;35.17;99122.78;4436980;32;34442;-87
2022/08/24 10:18:00;;;;;;;;;;;;;;;31.63;37.09;99123.22;4435789;32;34902;-86
2022/08/24 10:20:43;;;;;;;;;;;;;;;32.07;36.17;99116.34;4437128;32;35431;-88
2022/08/24 10:23:31;;;;;;;;;;;;;;;32.27;36.01;99131.75;4435718;32;34704;-86
2022/08/24 10:26:01;;;;;;;;;;;;;;;31.85;37.01;99131.38;4435764;32;34391;-87
2022/08/24 10:28:43;;;;;;;;;;;;;;;32.07;37.58;99127.94;4435494;32;34717;-88
2022/08/24 10:31:13;;;;;;;;;;;;;;;32.35;36.30;99132.03;4436502;32;34199;-86
2022/08/24 10:33:56;;;;;;;;;;;;;;;31.33;37.12;99145.09;4450899;32;34083;-86
2022/08/24 10:36:31;;;;;;;;;;;;;;;31.86;37.01;99142.97;4452281;32;34394;-87
2022/08/24 10:41:49;;;;;;;;;;;;;;;31.76;37.25;99140.09;4452806;32;34177;-87
2022/08/24 10:44:22;;;;;;;;;;;;;;;31.47;37.92;99140.44;4452501;32;33856;-86
2022/08/24 10:46:57;;;;;;;;;;;;;;;31.35;38.55;99146.72;4452239;32;33404;-85
2022/08/24 10:49:27;;;;;;;;;;;;;;;32.03;36.91;99139.87;4451021;32;35153;-87
2022/08/24 10:52:01;;;;;;;;;;;;;;;31.85;38.13;99139.44;4452287;32;35293;-87
2022/08/24 10:54:31;;;;;;;;;;;;;;;31.50;37.58;99134.88;4450674;32;34316;-88
2022/08/24 10:57:06;;;;;;;;;;;;;;;30.67;39.14;99144.44;4452235;32;33438;-88
2022/08/24 10:59:39;;;;;;;;;;;;;;;31.88;37.60;99141.03;4452323;32;34515;-88
2022/08/24 11:02:10;;;;;;;;;;;;;;;32.25;37.74;99141.78;4452520;32;35342;-87
2022/08/24 11:04:39;;;;;;;;;;;;;;;32.37;35.85;99138.13;4452233;32;35237;-87
2022/08/24 11:07:16;;;;;;;;;;;;;;;32.50;35.66;99139.87;4452492;32;33787;-87
2022/08/24 11:09:52;;;;;;;;;;;;;;;32.68;36.68;99144.66;4452289;32;34288;-85
2022/08/24 11:12:24;;;;;;;;;;;;;;;32.78;35.72;99144.78;4451036;32;35238;-88
2022/08/24 11:14:53;;;;;;;;;;;;;;;32.63;36.58;99141.50;4452109;32;34394;-86
2022/08/24 11:17:21;;;;;;;;;;;;;;;32.84;36.90;99138.06;4452035;32;34390;-88
2022/08/24 11:19:48;;;;;;;;;;;;;;;32.14;37.59;99136.38;4452356;32;34217;-87
2022/08/24 11:22:36;;;;;;;;;;;;;;;31.88;38.31;99138.34;4452193;32;35364;-85
2022/08/24 11:25:09;;;;;;;;;;;;;;;32.06;37.82;99144.16;4452154;32;35077;-88
2022/08/24 11:27:37;;;;;;;;;;;;;;;32.13;39.37;99150.75;4452161;32;34308;-87
2022/08/24 11:30:21;;;;;;;;;;;;;;;30.93;43.07;99159.53;4450534;32;34329;-86
2022/08/24 11:32:55;;;;;;;;;;;;;;;31.90;43.22;99158.72;4452031;32;35293;-86
2022/08/24 11:35:31;;;;;;;;;;;;;;;32.56;42.46;99155.50;4452243;32;34375;-86
2022/08/24 11:38:05;;;;;;;;;;;;;;;33.02;42.36;99151.91;4452386;32;34393;-86
2022/08/24 11:40:35;;;;;;;;;;;;;;;32.60;43.68;99156.97;4451620;32;35008;-87
2022/08/24 11:43:17;;;;;;;;;;;;;;;32.55;43.95;99167.22;4450774;32;34600;-85
2022/08/24 11:46:13;;;;;;;;;;;;;;;32.60;43.31;99162.34;4451914;32;34552;-87
2022/08/24 11:48:45;;;;;;;;;;;;;;;32.49;43.33;99159.66;4422716;32;33556;-87
2022/08/24 11:51:23;;;;;;;;;;;;;;;31.75;44.69;99151.81;4451804;32;35110;-87
2022/08/24 11:54:00;;;;;;;;;;;;;;;32.00;43.91;99155.34;4450538;32;34474;-86
2022/08/24 11:56:47;;;;;;;;;;;;;;;31.60;45.48;99158.31;4451554;32;35071;-88
2022/08/24 11:59:22;;;;;;;;;;;;;;;31.34;45.00;99171.78;4451677;32;34496;-87
2022/08/24 12:01:59;;;;;;;;;;;;;;;30.47;47.55;99169.91;4451681;32;34096;-87
2022/08/24 12:04:49;;;;;;;;;;;;;;;30.87;47.02;99177.84;4450584;32;34478;-87
2022/08/24 12:07:23;;;;;;;;;;;;;;;29.56;49.80;99169.72;4451899;32;34543;-86
2022/08/24 12:09:54;;;;;;;;;;;;;;;28.89;51.46;99176.66;4450159;32;34324;-88
2022/08/24 12:12:40;;;;;;;;;;;;;;;29.23;50.31;99180.75;4450453;32;33929;-85
2022/08/24 12:15:17;;;;;;;;;;;;;;;28.55;51.73;99184.06;4451649;32;35207;-88
2022/08/24 12:18:01;;;;;;;;;;;;;;;27.80;52.09;99197.31;4451704;32;34900;-88
2022/08/24 12:20:35;;;;;;;;;;;;;;;26.90;54.38;99194.34;4450291;32;33667;-88
2022/08/24 12:23:04;;;;;;;;;;;;;;;27.20;53.07;99197.16;4450240;32;34108;-86
2022/08/24 12:28:25;;;;;;;;;;;;;;;28.12;50.69;99192.81;4435555;32;34237;-85
2022/08/24 12:30:52;;;;;;;;;;;;;;;28.02;51.70;99199.63;4434548;32;34462;-87
2022/08/24 12:33:21;;;;;;;;;;;;;;;27.94;51.66;99199.22;4435732;32;35080;-87
2022/08/24 12:35:51;;;;;;;;;;;;;;;27.63;53.68;99194.75;4439688;32;36008;-86
2022/08/24 12:38:25;;;;;;;;;;;;;;;27.22;55.78;99194.41;4449612;32;34392;-87
2022/08/24 12:40:55;;;;;;;;;;;;;;;27.09;56.87;99199.53;4449921;32;34013;-86
2022/08/24 12:43:36;;;;;;;;;;;;;;;27.52;55.94;99195.34;4450125;32;34142;-86
2022/08/24 12:46:05;;;;;;;;;;;;;;;27.60;55.91;99209.09;4444895;32;34840;-85
2022/08/24 12:48:32;;;;;;;;;;;;;;;27.96;55.11;99201.78;4435502;32;35257;-85
2022/08/24 12:51:06;;;;;;;;;;;;;;;28.38;54.01;99201.09;4437791;32;33549;-87
2022/08/24 12:53:46;;;;;;;;;;;;;;;28.51;53.57;99194.06;4450900;32;34125;-87
2022/08/24 12:56:13;;;;;;;;;;;;;;;28.44;53.84;99194.53;4418833;32;854257;-85
2022/08/24 12:58:57;;;;;;;;;;;;;;;28.40;54.21;99191.19;4435572;32;34554;-86
2022/08/24 13:01:32;;;;;;;;;;;;;;;28.75;52.90;99188.19;4434111;32;33660;-86
2022/08/24 13:04:01;;;;;;;;;;;;;;;28.39;54.24;99180.63;4434248;32;34963;-86
2022/08/24 13:06:36;;;;;;;;;;;;;;;27.89;56.00;99179.97;4441762;32;34455;-87
2022/08/24 13:09:10;;;;;;;;;;;;;;;28.69;54.01;99167.22;4446111;32;34970;-85
2022/08/24 13:11:37;;;;;;;;;;;;;;;28.78;54.38;99166.66;4433389;32;33448;-87
2022/08/24 13:14:06;;;;;;;;;;;;;;;29.11;53.54;99168.19;4439865;32;34818;-88
2022/08/24 13:16:50;;;;;;;;;;;;;;;29.00;53.34;99172.41;4435556;32;35162;-87
2022/08/24 13:19:29;;;;;;;;;;;;;;;29.28;53.55;99179.53;4442101;32;34215;-88
2022/08/24 13:22:17;;;;;;;;;;;;;;;29.30;53.13;99182.94;4437291;32;33516;-89